Weather at Torun Airfield (Aeroklub Pomorski)

Public forecast

Using degrees Celsius for public forecast. Weather courtesy of forecast.io.

Closest aviation weather report (METAR) to Torun Airfield (Aeroklub Pomorski)

Closest report is Bydgoszcz Ignacy Jan Paderewski Airport, 20.9 nm (38.7 km) WNW.

2024/05/18 09:30 (retrieved 25 minutes ago)

EPBY 180930Z 13014G24KT 100V160 CAVOK 22/08 Q1013

Closest aviation forecast (TAF) to Torun Airfield (Aeroklub Pomorski)

Closest forecast is Bydgoszcz Ignacy Jan Paderewski Airport, 20.9 nm (38.7 km) WNW.

2024/05/18 06:00 (retrieved 4 hours ago)

TAF EPBY 180530Z 1806/1906 11010KT CAVOK TEMPO 1808/1818 14015G25KT TEMPO 1810/1819 7000 -SHRA SCT040CB PROB30 TEMPO 1814/1818 4000 TSRA BKN030CB BECMG 1818/1821 VRB02KT TEMPO 1823/1904 4000 BR